Galena, Nevada Weather observations

Data are for 60 minute period ending nearest time listed.
 Day   Time    Ave.   Ave.  Ave.  Vector   Max.   Total    Solar   
  of    of     Air    Rel.  Wind   Wind    Wind  Precip.   Rad.    
Year   Day     Temp.  Hum.  Speed  Dir.    Gust                    
2026   (PST)    F      %     mph   deg.    mph     in.     W/m2    
------------------------------------------------------------------- 
 248   14:00   69.0    25   14.0   230     26.0    2.02     807  
 248   15:00   69.0    26   13.0   234     30.0    2.02     700  
 248   16:00   68.0    26   16.0   231     35.0    2.02     553  
 248   17:00   65.0    30   17.0   209     33.0    2.02     371  
 248   18:00   62.0    37   15.0   239     30.0    2.02     110  
 248   19:00   60.0    38   14.0   236     27.0    2.02      15  
 248   20:00   58.0    43    4.0   223     30.0    2.02       0  
 248   21:00   59.0    40    7.0   218     22.0    2.02       0  
 248   22:00   56.0    46    5.0   206     13.0    2.02       0  
 248   23:00   57.0    41    9.0   222     18.0    2.02       0  
 249    0:00   58.0    39   10.0   210     20.0    2.02       0  
 249    1:00   57.0    44    7.0   202     20.0    2.02       0  
 249    2:00   50.0    61    3.0    60     15.0    2.02       0  
 249    3:00   48.0    65    6.0     2     18.0    2.02       0  
 249    4:00   46.0    68    2.0   321      8.0    2.02       0  
 249    5:00   46.0    66    6.0   341      8.0    2.02       0  
 249    6:00   45.0    65    4.0   325      8.0    2.02       4  
 249    7:00   55.0    53    7.0    11     10.0    2.02     118  
 249    8:00   59.0    48    6.0    57     10.0    2.02     319  
 249    9:00   63.0    42    6.0   175     16.0    2.02     452  
 249   10:00   65.0    33   14.0   209     31.0    2.02     403  
 249   11:00   69.0    26   11.0   212     32.0    2.02     727  
 249   12:00   70.0    25   13.0   205     28.0    2.02     845  
 249   13:00   70.0    26   13.0   204     29.0    2.02     851  

Return to Galena, Nevada graphs page.


Western Regional Climate Center,wrcc@dri.edu